createdAt,value
2018-12-12T00:01:26.356Z,93389.50
2018-12-12T00:03:54.498Z,93390.17
2018-12-12T00:06:22.586Z,93388.44
2018-12-12T00:08:50.543Z,93393.55
2018-12-12T00:11:18.863Z,93391.36
2018-12-12T00:13:47.000Z,93399.59
2018-12-12T00:16:15.007Z,93395.28
2018-12-12T00:18:43.037Z,93395.74
2018-12-12T00:21:11.004Z,93397.37
2018-12-12T00:23:39.080Z,93397.70
2018-12-12T00:26:07.055Z,93399.44
2018-12-12T00:28:35.082Z,93394.70
2018-12-12T00:31:03.006Z,93397.30
2018-12-12T00:33:30.923Z,93399.37
2018-12-12T00:35:58.889Z,93400.64
2018-12-12T00:38:26.921Z,93402.34
2018-12-12T00:40:54.804Z,93402.65
2018-12-12T00:43:22.774Z,93408.63
2018-12-12T00:45:50.715Z,93405.25
2018-12-12T00:48:18.692Z,93400.60
2018-12-12T00:50:46.679Z,93404.58
2018-12-12T00:53:14.648Z,93406.65
2018-12-12T00:55:42.673Z,93404.53
2018-12-12T00:58:10.664Z,93407.02
2018-12-12T01:00:38.655Z,93407.80
2018-12-12T01:03:06.568Z,93405.94
2018-12-12T01:05:34.598Z,93399.22
2018-12-12T01:08:02.513Z,93401.06
2018-12-12T01:10:33.392Z,93394.22
2018-12-12T01:13:01.348Z,93397.27
2018-12-12T01:15:29.313Z,93399.03
2018-12-12T01:17:57.285Z,93397.35
2018-12-12T01:20:25.265Z,93395.97
2018-12-12T01:22:53.194Z,93395.30
2018-12-12T01:25:21.143Z,93394.13
2018-12-12T01:27:49.063Z,93393.42
2018-12-12T01:30:17.048Z,93398.41
2018-12-12T01:32:45.048Z,93399.30
2018-12-12T01:35:13.018Z,93406.97
2018-12-12T01:37:41.011Z,93404.17
2018-12-12T01:40:08.976Z,93404.67
2018-12-12T01:42:36.929Z,93403.44
2018-12-12T01:45:05.053Z,93405.84
2018-12-12T01:47:33.011Z,93402.97
2018-12-12T01:50:01.005Z,93405.14
2018-12-12T01:52:29.048Z,93398.78
2018-12-12T01:54:57.077Z,93397.49
2018-12-12T01:57:24.999Z,93391.45
2018-12-12T01:59:53.002Z,93399.97
2018-12-12T02:02:21.002Z,93398.64
2018-12-12T02:04:48.936Z,93393.92
2018-12-12T02:07:17.063Z,93395.14
2018-12-12T02:09:45.048Z,93388.78
2018-12-12T02:12:12.969Z,93388.27
2018-12-12T02:14:40.922Z,93390.00
2018-12-12T02:17:08.976Z,93395.20
2018-12-12T02:19:37.030Z,93390.11
2018-12-12T02:22:05.049Z,93392.08
2018-12-12T02:24:32.984Z,93385.77
2018-12-12T02:27:00.903Z,93389.16
2018-12-12T02:29:28.835Z,93384.89
2018-12-12T02:31:56.775Z,93388.72
2018-12-12T02:34:24.705Z,93395.76
2018-12-12T02:36:52.666Z,93389.44
2018-12-12T02:39:20.655Z,93394.36
2018-12-12T02:41:48.664Z,93390.31
2018-12-12T02:44:16.598Z,93392.08
2018-12-12T02:46:44.714Z,93393.41
2018-12-12T02:49:12.612Z,93388.38
2018-12-12T02:51:40.570Z,93383.27
2018-12-12T02:54:08.549Z,93387.13
2018-12-12T02:56:36.552Z,93389.40
2018-12-12T02:59:04.512Z,93383.81
2018-12-12T03:01:32.491Z,93385.81
2018-12-12T03:04:00.431Z,93388.35
2018-12-12T03:06:28.354Z,93389.25
2018-12-12T03:08:56.411Z,93391.82
2018-12-12T03:11:24.452Z,93387.52
2018-12-12T03:13:52.886Z,93378.47
2018-12-12T03:16:21.282Z,93378.85
2018-12-12T03:18:49.308Z,93377.21
2018-12-12T03:21:17.869Z,93373.89
2018-12-12T03:23:45.896Z,93377.73
2018-12-12T03:26:13.853Z,93381.48
2018-12-12T03:28:41.864Z,93386.99
2018-12-12T03:31:09.857Z,93384.53
2018-12-12T03:33:37.837Z,93396.84
2018-12-12T03:36:05.846Z,93390.94
2018-12-12T03:38:33.839Z,93389.61
2018-12-12T03:41:01.983Z,93390.86
2018-12-12T03:43:30.029Z,93388.27
2018-12-12T03:45:58.012Z,93390.00
2018-12-12T03:48:25.998Z,93382.63
2018-12-12T03:50:54.040Z,93386.14
2018-12-12T03:53:22.039Z,93396.66
2018-12-12T03:55:50.017Z,93396.67
2018-12-12T03:58:18.048Z,93398.06
2018-12-12T04:00:46.219Z,93401.45
2018-12-12T04:03:14.120Z,93400.95
2018-12-12T04:05:42.088Z,93406.38
2018-12-12T04:08:10.107Z,93401.70
2018-12-12T04:10:38.051Z,93405.86
2018-12-12T04:13:06.060Z,93416.10
2018-12-12T04:15:34.245Z,93410.34
2018-12-12T04:18:02.184Z,93418.80
2018-12-12T04:20:30.127Z,93422.58
2018-12-12T04:22:58.914Z,93419.88
2018-12-12T04:25:27.286Z,93419.22
2018-12-12T04:27:55.253Z,93423.56
2018-12-12T04:30:23.346Z,93425.58
2018-12-12T04:32:51.250Z,93429.84
2018-12-12T04:35:19.242Z,93431.11
2018-12-12T04:37:47.288Z,93423.89
2018-12-12T04:40:15.262Z,93416.73
2018-12-12T04:42:43.255Z,93404.48
2018-12-12T04:45:11.265Z,93404.42
2018-12-12T04:47:39.319Z,93394.73
2018-12-12T04:50:07.315Z,93398.68
2018-12-12T04:52:35.317Z,93410.55
2018-12-12T04:55:03.255Z,93408.74
2018-12-12T04:57:31.204Z,93420.63
2018-12-12T04:59:59.264Z,93439.86
2018-12-12T05:02:27.984Z,93450.77
2018-12-12T05:04:56.769Z,93456.83
2018-12-12T05:07:24.762Z,93456.86
2018-12-12T05:09:52.883Z,93452.22
2018-12-12T05:12:20.848Z,93460.68
2018-12-12T05:14:48.881Z,93467.72
2018-12-12T05:17:16.888Z,93465.91
2018-12-12T05:19:44.979Z,93459.41
2018-12-12T05:22:12.984Z,93461.95
2018-12-12T05:24:41.110Z,93459.48
2018-12-12T05:27:09.116Z,93466.34
2018-12-12T05:29:37.148Z,93459.61
2018-12-12T05:32:05.531Z,93456.73
2018-12-12T05:34:33.532Z,93466.03
2018-12-12T05:37:01.545Z,93468.66
2018-12-12T05:39:29.578Z,93470.25
2018-12-12T05:41:57.528Z,93465.98
2018-12-12T05:44:25.526Z,93467.52
2018-12-12T05:46:53.563Z,93466.11
2018-12-12T05:49:21.675Z,93463.64
2018-12-12T05:51:49.791Z,93470.52
2018-12-12T05:54:17.818Z,93473.86
2018-12-12T05:56:52.203Z,93471.69
2018-12-12T05:59:16.156Z,93467.86
2018-12-12T06:01:44.612Z,93475.44
2018-12-12T06:04:12.845Z,93476.94
2018-12-12T06:06:41.071Z,93468.42
2018-12-12T06:09:09.916Z,93481.52
2018-12-12T06:11:38.921Z,93480.18
2018-12-12T06:14:07.300Z,93486.53
2018-12-12T06:16:36.002Z,93488.19
2018-12-12T06:19:05.180Z,93491.08
2018-12-12T06:21:33.789Z,93494.44
2018-12-12T06:24:01.967Z,93499.37
2018-12-12T06:26:30.192Z,93498.91
2018-12-12T06:28:58.851Z,93505.98
2018-12-12T06:31:27.239Z,93499.16
2018-12-12T06:33:55.565Z,93505.53
2018-12-12T06:36:24.025Z,93506.66
2018-12-12T06:38:52.436Z,93509.16
2018-12-12T06:41:20.793Z,93514.15
2018-12-12T06:43:49.248Z,93511.51
2018-12-12T06:46:17.696Z,93510.55
2018-12-12T06:48:46.067Z,93517.22
2018-12-12T06:51:14.614Z,93518.52
2018-12-12T06:53:43.225Z,93524.06
2018-12-12T06:56:11.590Z,93520.63
2018-12-12T06:58:40.389Z,93518.22
2018-12-12T07:01:08.462Z,93517.97
2018-12-12T07:03:36.585Z,93515.34
2018-12-12T07:06:05.716Z,93515.42
2018-12-12T07:08:34.073Z,93518.66
2018-12-12T07:11:02.581Z,93506.28
2018-12-12T07:13:35.743Z,93507.00
2018-12-12T07:16:01.071Z,93507.92
2018-12-12T07:18:29.252Z,93506.64
2018-12-12T07:21:24.759Z,93508.88
2018-12-12T07:24:02.406Z,93516.73
2018-12-12T07:26:45.712Z,93527.50
2018-12-12T07:29:15.253Z,93527.58
2018-12-12T07:31:43.509Z,93530.49
2018-12-12T07:34:11.479Z,93532.23
2018-12-12T07:36:39.768Z,93532.11
2018-12-12T07:39:08.995Z,93531.92
2018-12-12T07:41:37.159Z,93538.19
2018-12-12T07:44:08.169Z,93543.74
2018-12-12T07:46:36.641Z,93546.63
2018-12-12T07:49:05.323Z,93551.55
2018-12-12T07:51:33.320Z,93555.63
2018-12-12T07:54:01.222Z,93562.38
2018-12-12T07:56:29.186Z,93563.38
2018-12-12T07:58:57.474Z,93566.02
2018-12-12T08:01:25.487Z,93572.90
2018-12-12T08:03:53.630Z,93568.45
2018-12-12T08:06:21.729Z,93571.23
2018-12-12T08:08:49.808Z,93572.91
2018-12-12T08:11:18.128Z,93579.56
2018-12-12T08:13:46.242Z,93578.80
2018-12-12T08:16:14.649Z,93586.42
2018-12-12T08:18:42.834Z,93592.98
2018-12-12T08:21:11.193Z,93587.42
2018-12-12T08:23:39.202Z,93586.88
2018-12-12T08:26:07.220Z,93593.84
2018-12-12T08:28:35.185Z,93589.45
2018-12-12T08:31:03.145Z,93591.63
2018-12-12T08:33:31.032Z,93598.47
2018-12-12T08:35:59.065Z,93595.70
2018-12-12T08:38:27.232Z,93602.92
2018-12-12T08:40:55.108Z,93598.82
2018-12-12T08:43:23.009Z,93597.59
2018-12-12T08:45:51.002Z,93594.83
2018-12-12T08:48:18.903Z,93591.04
2018-12-12T08:50:46.913Z,93589.54
2018-12-12T08:53:14.918Z,93591.36
2018-12-12T08:55:42.879Z,93588.05
2018-12-12T08:58:10.881Z,93584.28
2018-12-12T09:00:38.807Z,93583.52
2018-12-12T09:03:06.776Z,93584.06
2018-12-12T09:05:34.809Z,93582.28
2018-12-12T09:08:02.825Z,93578.76
2018-12-12T09:10:31.061Z,93581.45
2018-12-12T09:12:59.295Z,93576.52
2018-12-12T09:15:27.491Z,93582.72
2018-12-12T09:17:55.565Z,93587.45
2018-12-12T09:20:23.724Z,93587.39
2018-12-12T09:22:52.036Z,93585.80
2018-12-12T09:25:20.459Z,93592.31
2018-12-12T09:27:48.521Z,93591.78
2018-12-12T09:30:16.683Z,93587.08
2018-12-12T09:32:44.745Z,93587.20
2018-12-12T09:35:13.868Z,93587.68
2018-12-12T09:37:42.122Z,93582.56
2018-12-12T09:40:10.514Z,93586.17
2018-12-12T09:42:38.705Z,93587.01
2018-12-12T09:45:06.906Z,93586.94
2018-12-12T09:47:35.136Z,93582.42
2018-12-12T09:50:03.352Z,93576.32
2018-12-12T09:52:31.395Z,93571.73
2018-12-12T09:54:59.540Z,93573.81
2018-12-12T09:57:28.134Z,93569.25
2018-12-12T09:59:56.262Z,93559.81
2018-12-12T10:02:24.373Z,93554.53
2018-12-12T10:04:52.714Z,93555.50
2018-12-12T10:07:24.089Z,93557.34
2018-12-12T10:09:52.292Z,93550.55
2018-12-12T10:12:20.689Z,93550.07
2018-12-12T10:14:48.930Z,93538.20
2018-12-12T10:17:17.224Z,93541.01
2018-12-12T10:19:45.707Z,93539.33
2018-12-12T10:22:14.384Z,93545.53
2018-12-12T10:24:42.852Z,93537.80
2018-12-12T10:27:11.150Z,93536.02
2018-12-12T10:29:39.538Z,93538.95
2018-12-12T10:32:07.659Z,93525.22
2018-12-12T10:34:35.825Z,93528.82
2018-12-12T10:37:05.476Z,93524.18
2018-12-12T10:39:35.052Z,93522.27
2018-12-12T10:42:03.561Z,93520.62
2018-12-12T10:44:33.348Z,93510.56
2018-12-12T10:47:02.027Z,93510.31
2018-12-12T10:49:30.315Z,93508.41
2018-12-12T10:51:58.669Z,93506.50
2018-12-12T10:54:27.021Z,93509.22
2018-12-12T10:56:55.179Z,93505.02
2018-12-12T10:59:23.338Z,93506.92
2018-12-12T11:01:55.911Z,93508.29
2018-12-12T11:04:24.092Z,93510.89
2018-12-12T11:06:52.294Z,93506.92
2018-12-12T11:09:20.566Z,93514.58
2018-12-12T11:11:48.925Z,93510.73
2018-12-12T11:14:17.111Z,93514.95
2018-12-12T11:16:45.362Z,93505.63
2018-12-12T11:19:13.620Z,93510.44
2018-12-12T11:21:41.878Z,93509.88
2018-12-12T11:24:10.060Z,93512.81
2018-12-12T11:26:38.271Z,93512.13
2018-12-12T11:29:06.593Z,93508.74
2018-12-12T11:31:35.146Z,93513.13
2018-12-12T11:34:03.338Z,93516.73
2018-12-12T11:36:31.680Z,93513.67
2018-12-12T11:38:59.894Z,93515.70
2018-12-12T11:41:28.063Z,93519.05
2018-12-12T11:43:56.152Z,93517.73
2018-12-12T11:46:24.450Z,93517.27
2018-12-12T11:48:53.870Z,93519.17
2018-12-12T11:51:22.116Z,93518.31
2018-12-12T11:53:50.605Z,93523.31
2018-12-12T11:56:20.268Z,93515.08
2018-12-12T11:58:49.361Z,93515.66
2018-12-12T12:01:19.031Z,93506.55
2018-12-12T12:03:48.939Z,93508.94
2018-12-12T12:06:17.161Z,93511.06
2018-12-12T12:08:45.352Z,93509.28
2018-12-12T12:11:13.662Z,93510.36
2018-12-12T12:13:41.945Z,93512.00
2018-12-12T12:16:11.330Z,93510.64
2018-12-12T12:18:41.081Z,93505.91
2018-12-12T12:21:09.445Z,93511.57
2018-12-12T12:23:37.676Z,93510.07
2018-12-12T12:26:06.983Z,93505.50
2018-12-12T12:28:36.304Z,93509.97
2018-12-12T12:31:04.806Z,93505.43
2018-12-12T12:33:34.209Z,93509.28
2018-12-12T12:36:03.337Z,93508.78
2018-12-12T12:38:31.571Z,93507.76
2018-12-12T12:40:59.858Z,93513.59
2018-12-12T12:43:29.444Z,93518.06
2018-12-12T12:45:59.384Z,93513.71
2018-12-12T12:48:27.684Z,93515.84
2018-12-12T12:50:55.774Z,93518.28
2018-12-12T12:53:24.157Z,93525.59
2018-12-12T12:55:52.560Z,93521.67
2018-12-12T12:58:21.074Z,93523.33
2018-12-12T13:00:50.345Z,93521.25
2018-12-12T13:03:18.821Z,93523.70
2018-12-12T13:05:46.922Z,93528.00
2018-12-12T13:08:14.896Z,93526.67
2018-12-12T13:10:45.317Z,93530.11
2018-12-12T13:13:14.975Z,93535.47
2018-12-12T13:15:44.085Z,93538.83
2018-12-12T13:18:12.291Z,93528.23
2018-12-12T13:20:40.283Z,93543.13
2018-12-12T13:23:08.330Z,93541.09
2018-12-12T13:25:36.307Z,93539.09
2018-12-12T13:28:04.329Z,93543.80
2018-12-12T13:30:32.482Z,93543.34
2018-12-12T13:33:00.547Z,93551.00
2018-12-12T13:35:29.056Z,93549.80
2018-12-12T13:37:57.040Z,93549.23
2018-12-12T13:40:25.023Z,93554.84
2018-12-12T13:42:53.233Z,93555.68
2018-12-12T13:45:21.322Z,93557.22
2018-12-12T13:47:49.550Z,93557.27
2018-12-12T13:50:18.031Z,93557.80
2018-12-12T13:52:46.103Z,93560.43
2018-12-12T13:55:15.555Z,93564.05
2018-12-12T13:57:43.671Z,93568.08
2018-12-12T14:00:11.898Z,93568.69
2018-12-12T14:02:40.198Z,93568.78
2018-12-12T14:05:08.809Z,93569.83
2018-12-12T14:07:36.873Z,93570.08
2018-12-12T14:10:05.241Z,93572.88
2018-12-12T14:12:33.415Z,93569.25
2018-12-12T14:15:01.413Z,93569.38
2018-12-12T14:17:29.378Z,93574.16
2018-12-12T14:19:57.498Z,93575.02
2018-12-12T14:22:25.484Z,93573.84
2018-12-12T14:24:53.505Z,93577.85
2018-12-12T14:27:21.502Z,93576.28
2018-12-12T14:29:49.543Z,93582.75
2018-12-12T14:32:17.430Z,93581.25
2018-12-12T14:34:45.565Z,93581.31
2018-12-12T14:37:13.880Z,93585.60
2018-12-12T14:39:42.070Z,93582.28
2018-12-12T14:42:10.053Z,93585.38
2018-12-12T14:44:38.045Z,93579.02
2018-12-12T14:47:06.051Z,93577.77
2018-12-12T14:49:34.150Z,93581.67
2018-12-12T14:52:02.604Z,93582.95
2018-12-12T14:54:30.639Z,93581.86
2018-12-12T14:56:58.916Z,93587.88
2018-12-12T14:59:27.131Z,93587.55
2018-12-12T15:01:55.273Z,93586.27
2018-12-12T15:04:23.493Z,93585.86
2018-12-12T15:06:51.568Z,93588.19
2018-12-12T15:09:20.820Z,93589.98
2018-12-12T15:11:49.031Z,93593.08
2018-12-12T15:14:16.991Z,93592.30
2018-12-12T15:16:44.983Z,93594.89
2018-12-12T15:19:12.906Z,93594.12
2018-12-12T15:21:40.933Z,93597.20
2018-12-12T15:24:08.905Z,93597.89
2018-12-12T15:26:39.837Z,93594.75
2018-12-12T15:29:07.755Z,93589.75
2018-12-12T15:31:35.797Z,93590.70
2018-12-12T15:34:03.952Z,93591.59
2018-12-12T15:36:32.056Z,93592.61
2018-12-12T15:39:00.374Z,93602.05
2018-12-12T15:41:28.500Z,93594.89
2018-12-12T15:43:56.479Z,93598.34
2018-12-12T15:46:24.478Z,93606.53
2018-12-12T15:48:52.558Z,93605.59
2018-12-12T15:51:20.633Z,93606.00
2018-12-12T15:53:48.672Z,93609.61
2018-12-12T15:56:16.734Z,93610.33
2018-12-12T15:58:44.912Z,93621.67
2018-12-12T16:01:13.156Z,93620.11
2018-12-12T16:03:42.599Z,93612.45
2018-12-12T16:06:10.904Z,93618.06
2018-12-12T16:08:39.026Z,93616.03
2018-12-12T16:11:08.379Z,93618.25
2018-12-12T16:13:36.806Z,93620.64
2018-12-12T16:16:04.866Z,93613.95
2018-12-12T16:18:33.451Z,93615.78
2018-12-12T16:21:01.868Z,93619.17
2018-12-12T16:23:29.873Z,93618.75
2018-12-12T16:25:57.947Z,93613.59
2018-12-12T16:28:26.250Z,93619.53
2018-12-12T16:30:54.359Z,93613.64
2018-12-12T16:33:22.388Z,93616.70
2018-12-12T16:35:50.667Z,93616.33
2018-12-12T16:38:20.018Z,93619.33
2018-12-12T16:40:48.033Z,93617.14
2018-12-12T16:43:16.503Z,93612.45
2018-12-12T16:45:44.584Z,93620.67
2018-12-12T16:48:12.644Z,93620.09
2018-12-12T16:50:40.780Z,93615.42
2018-12-12T16:53:09.155Z,93619.64
2018-12-12T16:55:37.290Z,93622.67
2018-12-12T16:58:05.408Z,93618.67
2018-12-12T17:00:33.451Z,93620.30
2018-12-12T17:03:01.501Z,93618.61
2018-12-12T17:05:29.467Z,93612.33
2018-12-12T17:07:58.027Z,93612.87
2018-12-12T17:10:27.244Z,93619.70
2018-12-12T17:12:55.664Z,93618.72
2018-12-12T17:15:23.794Z,93618.78
2018-12-12T17:17:52.039Z,93624.14
2018-12-12T17:20:20.142Z,93629.22
2018-12-12T17:22:48.268Z,93627.56
2018-12-12T17:25:16.304Z,93625.98
2018-12-12T17:27:44.425Z,93628.03
2018-12-12T17:30:12.395Z,93633.20
2018-12-12T17:32:40.422Z,93635.39
2018-12-12T17:35:08.925Z,93637.56
2018-12-12T17:37:37.492Z,93641.11
2018-12-12T17:40:05.511Z,93634.53
2018-12-12T17:42:33.482Z,93642.84
2018-12-12T17:45:01.541Z,93632.53
2018-12-12T17:47:29.656Z,93638.70
2018-12-12T17:49:57.772Z,93638.25
2018-12-12T17:52:25.808Z,93635.13
2018-12-12T17:54:53.886Z,93639.27
2018-12-12T17:57:21.900Z,93637.19
2018-12-12T17:59:49.875Z,93641.86
2018-12-12T18:02:17.920Z,93653.43
2018-12-12T18:04:45.958Z,93657.99
2018-12-12T18:07:14.109Z,93653.43
2018-12-12T18:09:42.447Z,93650.93
2018-12-12T18:12:10.833Z,93645.73
2018-12-12T18:14:39.985Z,93647.59
2018-12-12T18:17:08.111Z,93649.63
2018-12-12T18:19:36.241Z,93654.20
2018-12-12T18:22:04.363Z,93653.80
2018-12-12T18:24:32.698Z,93652.17
2018-12-12T18:27:00.918Z,93653.77
2018-12-12T18:29:29.346Z,93651.76
2018-12-12T18:31:57.710Z,93653.06
2018-12-12T18:34:26.118Z,93649.95
2018-12-12T18:36:54.387Z,93650.56
2018-12-12T18:39:22.623Z,93655.18
2018-12-12T18:41:50.772Z,93655.09
2018-12-12T18:44:18.996Z,93656.75
2018-12-12T18:46:47.330Z,93657.99
2018-12-12T18:49:15.633Z,93663.21
2018-12-12T18:51:44.401Z,93661.72
2018-12-12T18:54:12.769Z,93669.28
2018-12-12T18:56:41.736Z,93665.95
2018-12-12T18:59:10.275Z,93665.48
2018-12-12T19:01:38.422Z,93666.98
2018-12-12T19:04:06.554Z,93666.66
2018-12-12T19:06:34.822Z,93675.40
2018-12-12T19:09:03.882Z,93679.77
2018-12-12T19:11:32.491Z,93672.74
2018-12-12T19:14:00.639Z,93683.53
2018-12-12T19:16:29.903Z,93680.51
2018-12-12T19:18:58.052Z,93682.40
2018-12-12T19:21:26.154Z,93675.23
2018-12-12T19:23:54.260Z,93675.16
2018-12-12T19:26:23.317Z,93669.44
2018-12-12T19:28:51.541Z,93668.05
2018-12-12T19:31:19.629Z,93674.58
2018-12-12T19:33:47.689Z,93673.41
2018-12-12T19:36:15.817Z,93675.06
2018-12-12T19:38:44.021Z,93672.56
2018-12-12T19:41:12.113Z,93673.42
2018-12-12T19:43:40.370Z,93670.84
2018-12-12T19:46:08.542Z,93671.77
2018-12-12T19:48:36.715Z,93665.05
2018-12-12T19:51:04.993Z,93675.06
2018-12-12T19:53:33.188Z,93673.78
2018-12-12T19:56:01.989Z,93670.94
2018-12-12T19:58:30.465Z,93673.58
2018-12-12T20:00:58.854Z,93659.98
2018-12-12T20:03:27.044Z,93667.14
2018-12-12T20:05:55.039Z,93663.77
2018-12-12T20:08:23.185Z,93668.11
2018-12-12T20:10:51.396Z,93665.67
2018-12-12T20:13:19.983Z,93669.58
2018-12-12T20:15:48.117Z,93665.42
2018-12-12T20:18:16.495Z,93664.70
2018-12-12T20:20:44.666Z,93665.19
2018-12-12T20:23:13.138Z,93665.53
2018-12-12T20:25:41.326Z,93669.04
2018-12-12T20:28:11.715Z,93668.19
2018-12-12T20:30:40.050Z,93668.58
2018-12-12T20:33:08.088Z,93668.17
2018-12-12T20:35:36.091Z,93674.47
2018-12-12T20:38:04.171Z,93672.47
2018-12-12T20:40:32.177Z,93673.63
2018-12-12T20:43:00.137Z,93672.38
2018-12-12T20:45:28.096Z,93662.30
2018-12-12T20:47:56.080Z,93675.84
2018-12-12T20:50:24.009Z,93672.61
2018-12-12T20:52:51.997Z,93677.77
2018-12-12T20:55:19.992Z,93670.41
2018-12-12T20:57:47.946Z,93675.59
2018-12-12T21:00:15.988Z,93672.52
2018-12-12T21:02:43.949Z,93678.59
2018-12-12T21:05:12.101Z,93685.83
2018-12-12T21:07:40.184Z,93683.68
2018-12-12T21:10:08.185Z,93687.95
2018-12-12T21:12:36.298Z,93693.65
2018-12-12T21:15:07.196Z,93695.94
2018-12-12T21:17:35.537Z,93693.83
2018-12-12T21:20:04.535Z,93693.62
2018-12-12T21:22:32.602Z,93693.99
2018-12-12T21:25:00.703Z,93688.55
2018-12-12T21:27:28.762Z,93692.36
2018-12-12T21:29:56.852Z,93691.72
2018-12-12T21:32:24.908Z,93690.87
2018-12-12T21:34:52.949Z,93692.89
2018-12-12T21:37:21.008Z,93696.41
2018-12-12T21:39:49.049Z,93690.05
2018-12-12T21:42:17.034Z,93681.56
2018-12-12T21:44:45.074Z,93692.39
2018-12-12T21:47:13.060Z,93687.92
2018-12-12T21:49:41.024Z,93692.53
2018-12-12T21:52:09.076Z,93693.37
2018-12-12T21:54:37.063Z,93697.09
2018-12-12T21:57:05.022Z,93693.13
2018-12-12T21:59:32.977Z,93691.56
2018-12-12T22:02:00.924Z,93695.78
2018-12-12T22:04:28.863Z,93686.82
2018-12-12T22:06:56.865Z,93692.59
2018-12-12T22:09:24.773Z,93690.71
2018-12-12T22:11:52.725Z,93699.84
2018-12-12T22:14:20.732Z,93693.69
2018-12-12T22:16:48.638Z,93691.42
2018-12-12T22:19:16.612Z,93693.63
2018-12-12T22:21:44.595Z,93693.83
2018-12-12T22:24:12.576Z,93694.84
2018-12-12T22:26:40.524Z,93691.63
2018-12-12T22:29:08.548Z,93691.27
2018-12-12T22:31:36.483Z,93698.16
2018-12-12T22:34:04.447Z,93692.95
2018-12-12T22:36:32.408Z,93692.12
2018-12-12T22:39:00.369Z,93692.73
2018-12-12T22:41:28.356Z,93692.08
2018-12-12T22:43:56.306Z,93686.78
2018-12-12T22:46:24.344Z,93691.94
2018-12-12T22:48:52.270Z,93692.83
2018-12-12T22:51:20.334Z,93683.42
2018-12-12T22:53:48.273Z,93688.63
2018-12-12T22:56:16.245Z,93687.84
2018-12-12T22:58:44.204Z,93688.41
2018-12-12T23:01:16.596Z,93692.03
2018-12-12T23:03:44.563Z,93701.83
2018-12-12T23:06:12.542Z,93699.52
2018-12-12T23:08:40.458Z,93706.39
2018-12-12T23:11:08.671Z,93705.34
2018-12-12T23:13:36.613Z,93699.45
2018-12-12T23:16:04.573Z,93712.42
2018-12-12T23:18:32.495Z,93706.60
2018-12-12T23:21:00.480Z,93709.16
2018-12-12T23:23:28.536Z,93708.41
2018-12-12T23:25:56.701Z,93704.27
2018-12-12T23:28:24.672Z,93709.38
2018-12-12T23:30:52.756Z,93702.20
2018-12-12T23:33:20.806Z,93707.70
2018-12-12T23:35:48.773Z,93703.14
2018-12-12T23:38:16.751Z,93707.84
2018-12-12T23:40:44.726Z,93704.94
2018-12-12T23:43:12.668Z,93704.16
2018-12-12T23:45:40.627Z,93709.25
2018-12-12T23:48:08.562Z,93706.71
2018-12-12T23:50:36.462Z,93707.20
2018-12-12T23:53:04.494Z,93707.69
2018-12-12T23:55:32.514Z,93713.98
2018-12-12T23:58:00.490Z,93710.24
